sensor_id;sensor_type;location;lat;lon;timestamp;P1;durP1;ratioP1;P2;durP2;ratioP2
17201;SDS011;8717;53.588;10.176;2023-11-19T00:02:21;8.17;;;5.87;;
17201;SDS011;8717;53.588;10.176;2023-11-19T00:04:48;7.73;;;6.20;;
17201;SDS011;8717;53.588;10.176;2023-11-19T00:07:14;8.40;;;6.27;;
17201;SDS011;8717;53.588;10.176;2023-11-19T00:09:41;7.47;;;5.90;;
17201;SDS011;8717;53.588;10.176;2023-11-19T00:12:08;8.90;;;5.27;;
17201;SDS011;8717;53.588;10.176;2023-11-19T00:14:35;8.13;;;5.10;;
17201;SDS011;8717;53.588;10.176;2023-11-19T00:17:02;6.83;;;5.40;;
17201;SDS011;8717;53.588;10.176;2023-11-19T00:19:31;8.37;;;5.00;;
17201;SDS011;8717;53.588;10.176;2023-11-19T00:21:57;6.70;;;5.20;;
17201;SDS011;8717;53.588;10.176;2023-11-19T00:24:27;8.37;;;5.37;;
17201;SDS011;8717;53.588;10.176;2023-11-19T00:26:55;6.07;;;4.90;;
17201;SDS011;8717;53.588;10.176;2023-11-19T00:29:22;8.63;;;4.40;;
17201;SDS011;8717;53.588;10.176;2023-11-19T00:31:49;6.03;;;4.13;;
17201;SDS011;8717;53.588;10.176;2023-11-19T00:34:15;5.80;;;4.30;;
17201;SDS011;8717;53.588;10.176;2023-11-19T00:36:47;5.33;;;3.90;;
17201;SDS011;8717;53.588;10.176;2023-11-19T00:39:14;6.13;;;3.90;;
17201;SDS011;8717;53.588;10.176;2023-11-19T00:41:41;5.87;;;4.00;;
17201;SDS011;8717;53.588;10.176;2023-11-19T00:44:08;4.33;;;3.40;;
17201;SDS011;8717;53.588;10.176;2023-11-19T00:46:36;4.13;;;3.40;;
17201;SDS011;8717;53.588;10.176;2023-11-19T00:49:02;5.17;;;3.43;;
17201;SDS011;8717;53.588;10.176;2023-11-19T00:51:29;4.27;;;3.00;;
17201;SDS011;8717;53.588;10.176;2023-11-19T00:53:58;3.40;;;3.07;;
17201;SDS011;8717;53.588;10.176;2023-11-19T00:56:26;3.93;;;2.90;;
17201;SDS011;8717;53.588;10.176;2023-11-19T00:58:54;3.63;;;2.63;;
17201;SDS011;8717;53.588;10.176;2023-11-19T01:01:21;3.60;;;2.90;;
17201;SDS011;8717;53.588;10.176;2023-11-19T01:03:48;2.57;;;2.37;;
17201;SDS011;8717;53.588;10.176;2023-11-19T01:06:15;2.53;;;2.20;;
17201;SDS011;8717;53.588;10.176;2023-11-19T01:08:52;3.53;;;2.50;;
17201;SDS011;8717;53.588;10.176;2023-11-19T01:11:21;3.87;;;2.50;;
17201;SDS011;8717;53.588;10.176;2023-11-19T01:13:49;2.87;;;2.57;;
17201;SDS011;8717;53.588;10.176;2023-11-19T01:16:16;2.83;;;2.30;;
17201;SDS011;8717;53.588;10.176;2023-11-19T01:18:43;2.77;;;2.30;;
17201;SDS011;8717;53.588;10.176;2023-11-19T01:21:11;2.23;;;1.90;;
17201;SDS011;8717;53.588;10.176;2023-11-19T01:23:39;3.27;;;2.27;;
17201;SDS011;8717;53.588;10.176;2023-11-19T01:26:08;3.10;;;2.47;;
17201;SDS011;8717;53.588;10.176;2023-11-19T01:28:36;2.50;;;2.00;;
17201;SDS011;8717;53.588;10.176;2023-11-19T01:31:04;3.40;;;2.10;;
17201;SDS011;8717;53.588;10.176;2023-11-19T01:33:32;2.53;;;1.83;;
17201;SDS011;8717;53.588;10.176;2023-11-19T01:35:59;4.17;;;1.90;;
17201;SDS011;8717;53.588;10.176;2023-11-19T01:38:26;2.23;;;1.90;;
17201;SDS011;8717;53.588;10.176;2023-11-19T01:40:55;2.43;;;2.00;;
17201;SDS011;8717;53.588;10.176;2023-11-19T01:43:33;1.93;;;1.73;;
17201;SDS011;8717;53.588;10.176;2023-11-19T01:46:02;2.10;;;1.70;;
17201;SDS011;8717;53.588;10.176;2023-11-19T01:48:31;2.53;;;1.50;;
17201;SDS011;8717;53.588;10.176;2023-11-19T01:51:00;2.23;;;1.70;;
17201;SDS011;8717;53.588;10.176;2023-11-19T01:53:27;1.57;;;1.47;;
17201;SDS011;8717;53.588;10.176;2023-11-19T01:55:56;3.33;;;1.67;;
17201;SDS011;8717;53.588;10.176;2023-11-19T01:58:23;2.33;;;1.50;;
17201;SDS011;8717;53.588;10.176;2023-11-19T02:00:51;1.80;;;1.67;;
17201;SDS011;8717;53.588;10.176;2023-11-19T02:03:20;1.87;;;1.43;;
17201;SDS011;8717;53.588;10.176;2023-11-19T02:05:48;2.00;;;1.40;;
17201;SDS011;8717;53.588;10.176;2023-11-19T02:08:16;3.07;;;1.60;;
17201;SDS011;8717;53.588;10.176;2023-11-19T02:10:44;1.50;;;1.20;;
17201;SDS011;8717;53.588;10.176;2023-11-19T02:13:11;1.77;;;1.37;;
17201;SDS011;8717;53.588;10.176;2023-11-19T02:15:40;5.30;;;1.30;;
17201;SDS011;8717;53.588;10.176;2023-11-19T02:18:17;1.40;;;0.93;;
17201;SDS011;8717;53.588;10.176;2023-11-19T02:20:46;1.10;;;1.00;;
17201;SDS011;8717;53.588;10.176;2023-11-19T02:23:13;1.20;;;1.10;;
17201;SDS011;8717;53.588;10.176;2023-11-19T02:25:40;0.90;;;0.90;;
17201;SDS011;8717;53.588;10.176;2023-11-19T02:28:10;1.30;;;1.07;;
17201;SDS011;8717;53.588;10.176;2023-11-19T02:30:37;1.17;;;1.07;;
17201;SDS011;8717;53.588;10.176;2023-11-19T02:33:05;0.80;;;0.80;;
17201;SDS011;8717;53.588;10.176;2023-11-19T02:35:32;1.07;;;0.90;;
17201;SDS011;8717;53.588;10.176;2023-11-19T02:37:59;1.20;;;0.90;;
17201;SDS011;8717;53.588;10.176;2023-11-19T02:40:29;2.00;;;1.03;;
17201;SDS011;8717;53.588;10.176;2023-11-19T02:42:56;2.80;;;1.30;;
17201;SDS011;8717;53.588;10.176;2023-11-19T02:45:24;2.70;;;1.30;;
17201;SDS011;8717;53.588;10.176;2023-11-19T02:47:54;1.57;;;1.07;;
17201;SDS011;8717;53.588;10.176;2023-11-19T02:50:21;1.83;;;1.03;;
17201;SDS011;8717;53.588;10.176;2023-11-19T02:52:51;1.17;;;1.07;;
17201;SDS011;8717;53.588;10.176;2023-11-19T02:55:21;1.27;;;1.13;;
17201;SDS011;8717;53.588;10.176;2023-11-19T02:57:49;1.30;;;1.10;;
17201;SDS011;8717;53.588;10.176;2023-11-19T03:00:18;1.20;;;1.10;;
17201;SDS011;8717;53.588;10.176;2023-11-19T03:02:50;1.30;;;1.20;;
17201;SDS011;8717;53.588;10.176;2023-11-19T03:05:24;1.40;;;1.30;;
17201;SDS011;8717;53.588;10.176;2023-11-19T03:07:55;1.20;;;1.07;;
17201;SDS011;8717;53.588;10.176;2023-11-19T03:10:23;4.00;;;1.40;;
17201;SDS011;8717;53.588;10.176;2023-11-19T03:12:51;1.47;;;1.37;;
17201;SDS011;8717;53.588;10.176;2023-11-19T03:15:20;1.20;;;1.07;;
17201;SDS011;8717;53.588;10.176;2023-11-19T03:17:47;1.57;;;1.40;;
17201;SDS011;8717;53.588;10.176;2023-11-19T03:20:16;3.13;;;1.10;;
17201;SDS011;8717;53.588;10.176;2023-11-19T03:22:43;1.43;;;1.30;;
17201;SDS011;8717;53.588;10.176;2023-11-19T03:25:10;1.73;;;1.30;;
17201;SDS011;8717;53.588;10.176;2023-11-19T03:27:38;2.17;;;1.40;;
17201;SDS011;8717;53.588;10.176;2023-11-19T03:30:07;2.50;;;1.20;;
17201;SDS011;8717;53.588;10.176;2023-11-19T03:32:35;1.40;;;1.30;;
17201;SDS011;8717;53.588;10.176;2023-11-19T03:35:05;2.37;;;1.47;;
17201;SDS011;8717;53.588;10.176;2023-11-19T03:37:34;1.50;;;1.40;;
17201;SDS011;8717;53.588;10.176;2023-11-19T03:40:01;1.60;;;1.20;;
17201;SDS011;8717;53.588;10.176;2023-11-19T03:42:29;4.37;;;1.90;;
17201;SDS011;8717;53.588;10.176;2023-11-19T03:44:56;3.43;;;1.60;;
17201;SDS011;8717;53.588;10.176;2023-11-19T03:47:24;2.10;;;1.70;;
17201;SDS011;8717;53.588;10.176;2023-11-19T03:49:51;2.90;;;2.10;;
17201;SDS011;8717;53.588;10.176;2023-11-19T03:52:19;1.70;;;1.60;;
17201;SDS011;8717;53.588;10.176;2023-11-19T03:54:46;1.60;;;1.50;;
17201;SDS011;8717;53.588;10.176;2023-11-19T03:57:13;3.00;;;1.70;;
17201;SDS011;8717;53.588;10.176;2023-11-19T03:59:40;1.77;;;1.67;;
17201;SDS011;8717;53.588;10.176;2023-11-19T04:02:07;2.60;;;2.10;;
17201;SDS011;8717;53.588;10.176;2023-11-19T04:04:34;1.87;;;1.70;;
17201;SDS011;8717;53.588;10.176;2023-11-19T04:07:01;3.23;;;2.00;;
17201;SDS011;8717;53.588;10.176;2023-11-19T04:09:30;2.83;;;2.40;;
17201;SDS011;8717;53.588;10.176;2023-11-19T04:11:58;8.37;;;2.50;;
17201;SDS011;8717;53.588;10.176;2023-11-19T04:14:25;3.07;;;2.50;;
17201;SDS011;8717;53.588;10.176;2023-11-19T04:16:53;4.07;;;2.60;;
17201;SDS011;8717;53.588;10.176;2023-11-19T04:19:19;2.73;;;2.40;;
17201;SDS011;8717;53.588;10.176;2023-11-19T04:21:47;2.90;;;2.60;;
17201;SDS011;8717;53.588;10.176;2023-11-19T04:24:14;4.30;;;2.40;;
17201;SDS011;8717;53.588;10.176;2023-11-19T04:26:42;3.53;;;2.77;;
17201;SDS011;8717;53.588;10.176;2023-11-19T04:29:11;21.83;;;3.50;;
17201;SDS011;8717;53.588;10.176;2023-11-19T04:31:38;3.03;;;2.73;;
17201;SDS011;8717;53.588;10.176;2023-11-19T04:34:06;3.40;;;2.57;;
17201;SDS011;8717;53.588;10.176;2023-11-19T04:36:33;3.50;;;2.30;;
17201;SDS011;8717;53.588;10.176;2023-11-19T04:39:00;2.63;;;2.17;;
17201;SDS011;8717;53.588;10.176;2023-11-19T04:41:27;5.00;;;2.50;;
17201;SDS011;8717;53.588;10.176;2023-11-19T04:43:55;5.67;;;2.90;;
17201;SDS011;8717;53.588;10.176;2023-11-19T04:46:22;4.47;;;2.70;;
17201;SDS011;8717;53.588;10.176;2023-11-19T04:48:49;3.40;;;2.70;;
17201;SDS011;8717;53.588;10.176;2023-11-19T04:51:16;3.43;;;3.00;;
17201;SDS011;8717;53.588;10.176;2023-11-19T04:53:43;14.37;;;4.17;;
17201;SDS011;8717;53.588;10.176;2023-11-19T04:56:10;4.03;;;3.03;;
17201;SDS011;8717;53.588;10.176;2023-11-19T04:58:38;9.80;;;3.97;;
17201;SDS011;8717;53.588;10.176;2023-11-19T05:01:13;6.67;;;3.73;;
17201;SDS011;8717;53.588;10.176;2023-11-19T05:03:41;66.10;;;7.27;;
17201;SDS011;8717;53.588;10.176;2023-11-19T05:06:08;16.00;;;5.07;;
17201;SDS011;8717;53.588;10.176;2023-11-19T05:08:35;20.43;;;5.17;;
17201;SDS011;8717;53.588;10.176;2023-11-19T05:11:02;31.77;;;6.27;;
17201;SDS011;8717;53.588;10.176;2023-11-19T05:13:31;9.67;;;5.13;;
17201;SDS011;8717;53.588;10.176;2023-11-19T05:15:58;11.43;;;4.50;;
17201;SDS011;8717;53.588;10.176;2023-11-19T05:18:26;7.47;;;5.40;;
17201;SDS011;8717;53.588;10.176;2023-11-19T05:20:53;14.50;;;5.97;;
17201;SDS011;8717;53.588;10.176;2023-11-19T05:23:20;8.87;;;5.47;;
17201;SDS011;8717;53.588;10.176;2023-11-19T05:25:47;9.17;;;5.83;;
17201;SDS011;8717;53.588;10.176;2023-11-19T05:28:14;9.33;;;6.20;;
17201;SDS011;8717;53.588;10.176;2023-11-19T05:30:41;10.87;;;6.10;;
17201;SDS011;8717;53.588;10.176;2023-11-19T05:33:10;15.07;;;6.60;;
17201;SDS011;8717;53.588;10.176;2023-11-19T05:35:38;11.17;;;6.50;;
17201;SDS011;8717;53.588;10.176;2023-11-19T05:38:05;10.30;;;6.27;;
17201;SDS011;8717;53.588;10.176;2023-11-19T05:40:32;13.60;;;7.17;;
17201;SDS011;8717;53.588;10.176;2023-11-19T05:42:59;9.07;;;6.63;;
17201;SDS011;8717;53.588;10.176;2023-11-19T05:45:26;13.13;;;6.87;;
17201;SDS011;8717;53.588;10.176;2023-11-19T05:47:52;19.50;;;7.77;;
17201;SDS011;8717;53.588;10.176;2023-11-19T05:50:19;10.87;;;7.90;;
17201;SDS011;8717;53.588;10.176;2023-11-19T05:52:48;12.50;;;7.27;;
17201;SDS011;8717;53.588;10.176;2023-11-19T05:55:15;28.40;;;9.00;;
17201;SDS011;8717;53.588;10.176;2023-11-19T05:57:42;16.83;;;8.17;;
17201;SDS011;8717;53.588;10.176;2023-11-19T06:00:09;14.77;;;9.00;;
17201;SDS011;8717;53.588;10.176;2023-11-19T06:02:38;17.20;;;8.57;;
17201;SDS011;8717;53.588;10.176;2023-11-19T06:05:05;12.63;;;8.43;;
17201;SDS011;8717;53.588;10.176;2023-11-19T06:07:34;20.03;;;8.70;;
17201;SDS011;8717;53.588;10.176;2023-11-19T06:10:05;15.23;;;8.97;;
17201;SDS011;8717;53.588;10.176;2023-11-19T06:12:34;13.43;;;8.67;;
17201;SDS011;8717;53.588;10.176;2023-11-19T06:15:04;13.80;;;8.40;;
17201;SDS011;8717;53.588;10.176;2023-11-19T06:17:31;16.17;;;9.53;;
17201;SDS011;8717;53.588;10.176;2023-11-19T06:19:58;18.23;;;9.27;;
17201;SDS011;8717;53.588;10.176;2023-11-19T06:22:25;15.57;;;9.20;;
17201;SDS011;8717;53.588;10.176;2023-11-19T06:24:51;12.67;;;8.90;;
17201;SDS011;8717;53.588;10.176;2023-11-19T06:27:20;13.03;;;8.50;;
17201;SDS011;8717;53.588;10.176;2023-11-19T06:29:48;17.13;;;9.57;;
17201;SDS011;8717;53.588;10.176;2023-11-19T06:32:15;15.93;;;9.37;;
17201;SDS011;8717;53.588;10.176;2023-11-19T06:34:42;15.83;;;9.80;;
17201;SDS011;8717;53.588;10.176;2023-11-19T06:37:08;17.77;;;10.10;;
17201;SDS011;8717;53.588;10.176;2023-11-19T06:39:35;24.93;;;10.60;;
17201;SDS011;8717;53.588;10.176;2023-11-19T06:42:03;22.30;;;10.17;;
17201;SDS011;8717;53.588;10.176;2023-11-19T06:44:31;20.33;;;11.10;;
17201;SDS011;8717;53.588;10.176;2023-11-19T06:46:58;18.37;;;10.97;;
17201;SDS011;8717;53.588;10.176;2023-11-19T06:49:24;25.07;;;11.40;;
17201;SDS011;8717;53.588;10.176;2023-11-19T06:51:51;21.53;;;10.57;;
17201;SDS011;8717;53.588;10.176;2023-11-19T06:54:18;22.97;;;11.70;;
17201;SDS011;8717;53.588;10.176;2023-11-19T06:56:45;27.07;;;11.87;;
17201;SDS011;8717;53.588;10.176;2023-11-19T06:59:11;24.53;;;11.97;;
17201;SDS011;8717;53.588;10.176;2023-11-19T07:01:39;26.23;;;11.93;;
17201;SDS011;8717;53.588;10.176;2023-11-19T07:04:10;49.43;;;13.53;;
17201;SDS011;8717;53.588;10.176;2023-11-19T07:06:37;41.83;;;12.60;;
17201;SDS011;8717;53.588;10.176;2023-11-19T07:09:06;39.13;;;15.83;;
17201;SDS011;8717;53.588;10.176;2023-11-19T07:11:35;34.27;;;13.27;;
17201;SDS011;8717;53.588;10.176;2023-11-19T07:14:03;29.43;;;12.73;;
17201;SDS011;8717;53.588;10.176;2023-11-19T07:16:31;33.60;;;12.30;;
17201;SDS011;8717;53.588;10.176;2023-11-19T07:19:00;25.13;;;10.07;;
17201;SDS011;8717;53.588;10.176;2023-11-19T07:21:27;25.73;;;10.77;;
17201;SDS011;8717;53.588;10.176;2023-11-19T07:23:54;30.90;;;10.00;;
17201;SDS011;8717;53.588;10.176;2023-11-19T07:26:21;32.67;;;10.03;;
17201;SDS011;8717;53.588;10.176;2023-11-19T07:28:48;23.73;;;9.37;;
17201;SDS011;8717;53.588;10.176;2023-11-19T07:31:16;25.77;;;8.40;;
17201;SDS011;8717;53.588;10.176;2023-11-19T07:33:44;27.87;;;8.57;;
17201;SDS011;8717;53.588;10.176;2023-11-19T07:36:12;28.33;;;9.03;;
17201;SDS011;8717;53.588;10.176;2023-11-19T07:38:39;24.47;;;7.70;;
17201;SDS011;8717;53.588;10.176;2023-11-19T07:41:06;36.90;;;8.33;;
17201;SDS011;8717;53.588;10.176;2023-11-19T07:43:35;25.17;;;7.10;;
17201;SDS011;8717;53.588;10.176;2023-11-19T07:46:01;20.67;;;6.73;;
17201;SDS011;8717;53.588;10.176;2023-11-19T07:48:29;20.23;;;6.50;;
17201;SDS011;8717;53.588;10.176;2023-11-19T07:50:56;24.13;;;6.10;;
17201;SDS011;8717;53.588;10.176;2023-11-19T07:53:24;18.70;;;5.77;;
17201;SDS011;8717;53.588;10.176;2023-11-19T07:55:51;22.30;;;5.60;;
17201;SDS011;8717;53.588;10.176;2023-11-19T07:58:18;27.43;;;6.03;;
17201;SDS011;8717;53.588;10.176;2023-11-19T08:00:44;25.70;;;5.70;;
17201;SDS011;8717;53.588;10.176;2023-11-19T08:03:11;29.13;;;6.30;;
17201;SDS011;8717;53.588;10.176;2023-11-19T08:05:38;24.30;;;6.63;;
17201;SDS011;8717;53.588;10.176;2023-11-19T08:08:05;43.10;;;7.17;;
17201;SDS011;8717;53.588;10.176;2023-11-19T08:10:33;21.37;;;5.70;;
17201;SDS011;8717;53.588;10.176;2023-11-19T08:13:00;24.13;;;5.97;;
17201;SDS011;8717;53.588;10.176;2023-11-19T08:15:27;22.90;;;5.87;;
17201;SDS011;8717;53.588;10.176;2023-11-19T08:17:53;24.87;;;5.83;;
17201;SDS011;8717;53.588;10.176;2023-11-19T08:20:20;27.47;;;6.43;;
17201;SDS011;8717;53.588;10.176;2023-11-19T08:22:47;21.87;;;6.43;;
17201;SDS011;8717;53.588;10.176;2023-11-19T08:25:14;26.53;;;5.93;;
17201;SDS011;8717;53.588;10.176;2023-11-19T08:27:42;22.83;;;5.93;;
17201;SDS011;8717;53.588;10.176;2023-11-19T08:30:09;28.53;;;5.60;;
17201;SDS011;8717;53.588;10.176;2023-11-19T08:32:37;30.13;;;6.37;;
17201;SDS011;8717;53.588;10.176;2023-11-19T08:35:03;18.30;;;5.23;;
17201;SDS011;8717;53.588;10.176;2023-11-19T08:37:30;20.93;;;6.03;;
17201;SDS011;8717;53.588;10.176;2023-11-19T08:39:57;25.13;;;6.10;;
17201;SDS011;8717;53.588;10.176;2023-11-19T08:42:24;21.60;;;5.63;;
17201;SDS011;8717;53.588;10.176;2023-11-19T08:44:52;21.03;;;4.97;;
17201;SDS011;8717;53.588;10.176;2023-11-19T08:47:19;22.57;;;6.07;;
17201;SDS011;8717;53.588;10.176;2023-11-19T08:49:47;18.37;;;6.17;;
17201;SDS011;8717;53.588;10.176;2023-11-19T08:52:16;29.97;;;5.90;;
17201;SDS011;8717;53.588;10.176;2023-11-19T08:54:43;29.77;;;6.00;;
17201;SDS011;8717;53.588;10.176;2023-11-19T08:57:10;24.20;;;5.87;;
17201;SDS011;8717;53.588;10.176;2023-11-19T08:59:37;29.43;;;5.83;;
17201;SDS011;8717;53.588;10.176;2023-11-19T09:02:05;24.20;;;5.80;;
17201;SDS011;8717;53.588;10.176;2023-11-19T09:04:32;24.93;;;6.10;;
17201;SDS011;8717;53.588;10.176;2023-11-19T09:06:59;25.40;;;5.43;;
17201;SDS011;8717;53.588;10.176;2023-11-19T09:09:25;25.70;;;5.70;;
17201;SDS011;8717;53.588;10.176;2023-11-19T09:11:52;23.17;;;5.40;;
17201;SDS011;8717;53.588;10.176;2023-11-19T09:14:19;25.70;;;5.60;;
17201;SDS011;8717;53.588;10.176;2023-11-19T09:16:49;29.63;;;6.03;;
17201;SDS011;8717;53.588;10.176;2023-11-19T09:19:17;24.03;;;5.53;;
17201;SDS011;8717;53.588;10.176;2023-11-19T09:21:44;32.93;;;7.27;;
17201;SDS011;8717;53.588;10.176;2023-11-19T09:24:10;26.10;;;6.03;;
17201;SDS011;8717;53.588;10.176;2023-11-19T09:26:37;25.77;;;6.13;;
17201;SDS011;8717;53.588;10.176;2023-11-19T09:29:06;30.23;;;6.50;;
17201;SDS011;8717;53.588;10.176;2023-11-19T09:31:33;25.40;;;6.57;;
17201;SDS011;8717;53.588;10.176;2023-11-19T09:34:00;25.43;;;5.90;;
17201;SDS011;8717;53.588;10.176;2023-11-19T09:36:28;26.93;;;6.43;;
17201;SDS011;8717;53.588;10.176;2023-11-19T09:38:55;27.87;;;5.97;;
17201;SDS011;8717;53.588;10.176;2023-11-19T09:41:22;35.63;;;6.93;;
17201;SDS011;8717;53.588;10.176;2023-11-19T09:43:52;25.63;;;6.20;;
17201;SDS011;8717;53.588;10.176;2023-11-19T09:46:18;25.30;;;5.47;;
17201;SDS011;8717;53.588;10.176;2023-11-19T09:48:45;25.57;;;6.10;;
17201;SDS011;8717;53.588;10.176;2023-11-19T09:51:13;24.13;;;6.13;;
17201;SDS011;8717;53.588;10.176;2023-11-19T09:53:41;22.27;;;5.97;;
17201;SDS011;8717;53.588;10.176;2023-11-19T09:56:08;31.70;;;6.63;;
17201;SDS011;8717;53.588;10.176;2023-11-19T09:58:35;28.00;;;6.00;;
17201;SDS011;8717;53.588;10.176;2023-11-19T10:01:02;26.90;;;6.20;;
17201;SDS011;8717;53.588;10.176;2023-11-19T10:03:32;23.03;;;5.97;;
17201;SDS011;8717;53.588;10.176;2023-11-19T10:06:03;25.90;;;6.57;;
17201;SDS011;8717;53.588;10.176;2023-11-19T10:08:30;23.10;;;5.87;;
17201;SDS011;8717;53.588;10.176;2023-11-19T10:10:58;28.37;;;6.07;;
17201;SDS011;8717;53.588;10.176;2023-11-19T10:13:25;25.83;;;6.20;;
17201;SDS011;8717;53.588;10.176;2023-11-19T10:15:52;25.13;;;5.53;;
17201;SDS011;8717;53.588;10.176;2023-11-19T10:18:23;30.93;;;5.97;;
17201;SDS011;8717;53.588;10.176;2023-11-19T10:20:51;22.60;;;5.90;;
17201;SDS011;8717;53.588;10.176;2023-11-19T10:23:18;31.40;;;6.87;;
17201;SDS011;8717;53.588;10.176;2023-11-19T10:25:45;30.23;;;6.60;;
17201;SDS011;8717;53.588;10.176;2023-11-19T10:28:13;31.80;;;7.03;;
17201;SDS011;8717;53.588;10.176;2023-11-19T10:30:41;24.33;;;6.07;;
17201;SDS011;8717;53.588;10.176;2023-11-19T10:33:08;26.53;;;6.33;;
17201;SDS011;8717;53.588;10.176;2023-11-19T10:35:50;25.63;;;5.57;;
17201;SDS011;8717;53.588;10.176;2023-11-19T10:38:18;34.03;;;6.10;;
17201;SDS011;8717;53.588;10.176;2023-11-19T10:40:45;28.00;;;6.23;;
17201;SDS011;8717;53.588;10.176;2023-11-19T10:43:13;27.77;;;6.43;;
17201;SDS011;8717;53.588;10.176;2023-11-19T10:45:40;23.03;;;5.80;;
17201;SDS011;8717;53.588;10.176;2023-11-19T10:48:06;24.47;;;6.03;;
17201;SDS011;8717;53.588;10.176;2023-11-19T10:50:33;30.10;;;7.20;;
17201;SDS011;8717;53.588;10.176;2023-11-19T10:53:01;23.77;;;6.53;;
17201;SDS011;8717;53.588;10.176;2023-11-19T10:55:29;29.60;;;6.30;;
17201;SDS011;8717;53.588;10.176;2023-11-19T10:57:58;18.33;;;5.30;;
17201;SDS011;8717;53.588;10.176;2023-11-19T11:00:28;29.77;;;6.10;;
17201;SDS011;8717;53.588;10.176;2023-11-19T11:02:59;30.10;;;6.67;;
17201;SDS011;8717;53.588;10.176;2023-11-19T11:05:28;28.57;;;6.37;;
17201;SDS011;8717;53.588;10.176;2023-11-19T11:07:58;23.37;;;5.70;;
17201;SDS011;8717;53.588;10.176;2023-11-19T11:10:26;26.50;;;6.23;;
17201;SDS011;8717;53.588;10.176;2023-11-19T11:12:59;25.40;;;5.23;;
17201;SDS011;8717;53.588;10.176;2023-11-19T11:15:30;28.07;;;6.73;;
17201;SDS011;8717;53.588;10.176;2023-11-19T11:17:59;26.77;;;6.37;;
17201;SDS011;8717;53.588;10.176;2023-11-19T11:20:27;23.93;;;6.20;;
17201;SDS011;8717;53.588;10.176;2023-11-19T11:22:58;24.40;;;6.53;;
17201;SDS011;8717;53.588;10.176;2023-11-19T11:25:40;29.90;;;6.57;;
17201;SDS011;8717;53.588;10.176;2023-11-19T11:28:16;27.93;;;5.73;;
17201;SDS011;8717;53.588;10.176;2023-11-19T11:31:09;23.07;;;6.00;;
17201;SDS011;8717;53.588;10.176;2023-11-19T11:33:54;28.40;;;6.43;;
17201;SDS011;8717;53.588;10.176;2023-11-19T11:36:32;23.13;;;6.27;;
17201;SDS011;8717;53.588;10.176;2023-11-19T11:39:07;26.67;;;5.93;;
17201;SDS011;8717;53.588;10.176;2023-11-19T11:41:34;21.53;;;5.27;;
17201;SDS011;8717;53.588;10.176;2023-11-19T11:44:01;25.17;;;5.87;;
17201;SDS011;8717;53.588;10.176;2023-11-19T11:49:25;29.57;;;5.83;;
17201;SDS011;8717;53.588;10.176;2023-11-19T11:51:59;24.50;;;6.10;;
17201;SDS011;8717;53.588;10.176;2023-11-19T11:54:26;23.13;;;5.70;;
17201;SDS011;8717;53.588;10.176;2023-11-19T11:59:45;26.83;;;6.57;;
17201;SDS011;8717;53.588;10.176;2023-11-19T12:02:15;23.97;;;6.00;;
17201;SDS011;8717;53.588;10.176;2023-11-19T12:04:43;25.53;;;5.00;;
17201;SDS011;8717;53.588;10.176;2023-11-19T12:07:13;33.20;;;5.70;;
17201;SDS011;8717;53.588;10.176;2023-11-19T12:09:41;31.23;;;6.57;;
17201;SDS011;8717;53.588;10.176;2023-11-19T12:12:17;26.07;;;5.90;;
17201;SDS011;8717;53.588;10.176;2023-11-19T12:17:40;30.67;;;6.93;;
17201;SDS011;8717;53.588;10.176;2023-11-19T12:20:15;25.00;;;6.47;;
17201;SDS011;8717;53.588;10.176;2023-11-19T12:22:43;28.00;;;6.00;;
17201;SDS011;8717;53.588;10.176;2023-11-19T12:25:11;25.17;;;5.80;;
17201;SDS011;8717;53.588;10.176;2023-11-19T12:27:39;23.13;;;6.20;;
17201;SDS011;8717;53.588;10.176;2023-11-19T12:30:07;27.30;;;6.27;;
17201;SDS011;8717;53.588;10.176;2023-11-19T12:32:39;26.63;;;6.17;;
17201;SDS011;8717;53.588;10.176;2023-11-19T12:35:07;25.77;;;5.90;;
17201;SDS011;8717;53.588;10.176;2023-11-19T12:37:42;25.67;;;5.77;;
17201;SDS011;8717;53.588;10.176;2023-11-19T12:40:11;23.33;;;5.37;;
17201;SDS011;8717;53.588;10.176;2023-11-19T12:42:40;23.70;;;5.93;;
17201;SDS011;8717;53.588;10.176;2023-11-19T12:45:07;21.13;;;5.50;;
17201;SDS011;8717;53.588;10.176;2023-11-19T12:47:35;26.23;;;6.13;;
17201;SDS011;8717;53.588;10.176;2023-11-19T12:50:04;22.03;;;5.63;;
17201;SDS011;8717;53.588;10.176;2023-11-19T12:52:33;22.13;;;4.70;;
17201;SDS011;8717;53.588;10.176;2023-11-19T12:55:00;22.17;;;5.47;;
17201;SDS011;8717;53.588;10.176;2023-11-19T12:57:37;22.67;;;6.00;;
17201;SDS011;8717;53.588;10.176;2023-11-19T13:00:05;22.33;;;5.53;;
17201;SDS011;8717;53.588;10.176;2023-11-19T13:02:45;26.60;;;5.90;;
17201;SDS011;8717;53.588;10.176;2023-11-19T13:05:21;27.60;;;5.40;;
17201;SDS011;8717;53.588;10.176;2023-11-19T13:07:49;22.83;;;6.03;;
17201;SDS011;8717;53.588;10.176;2023-11-19T13:10:16;27.03;;;6.20;;
17201;SDS011;8717;53.588;10.176;2023-11-19T13:12:43;24.23;;;5.90;;
17201;SDS011;8717;53.588;10.176;2023-11-19T13:15:22;20.57;;;5.40;;
17201;SDS011;8717;53.588;10.176;2023-11-19T13:17:49;27.67;;;6.20;;
17201;SDS011;8717;53.588;10.176;2023-11-19T13:20:16;27.00;;;5.90;;
17201;SDS011;8717;53.588;10.176;2023-11-19T13:22:54;21.37;;;5.53;;
17201;SDS011;8717;53.588;10.176;2023-11-19T13:25:22;23.53;;;5.17;;
17201;SDS011;8717;53.588;10.176;2023-11-19T13:27:48;25.20;;;6.00;;
17201;SDS011;8717;53.588;10.176;2023-11-19T13:30:16;24.03;;;6.10;;
17201;SDS011;8717;53.588;10.176;2023-11-19T13:32:43;24.17;;;5.87;;
17201;SDS011;8717;53.588;10.176;2023-11-19T13:35:11;26.53;;;5.93;;
17201;SDS011;8717;53.588;10.176;2023-11-19T13:37:38;24.33;;;5.33;;
17201;SDS011;8717;53.588;10.176;2023-11-19T13:40:06;25.63;;;6.07;;
17201;SDS011;8717;53.588;10.176;2023-11-19T13:42:35;24.03;;;5.83;;
17201;SDS011;8717;53.588;10.176;2023-11-19T13:45:06;25.53;;;6.17;;
17201;SDS011;8717;53.588;10.176;2023-11-19T13:47:36;29.07;;;6.37;;
17201;SDS011;8717;53.588;10.176;2023-11-19T13:50:03;28.00;;;6.33;;
17201;SDS011;8717;53.588;10.176;2023-11-19T13:52:31;21.93;;;4.83;;
17201;SDS011;8717;53.588;10.176;2023-11-19T13:54:58;24.27;;;5.43;;
17201;SDS011;8717;53.588;10.176;2023-11-19T13:57:26;25.63;;;5.77;;
17201;SDS011;8717;53.588;10.176;2023-11-19T13:59:56;24.73;;;5.50;;
17201;SDS011;8717;53.588;10.176;2023-11-19T14:02:23;22.63;;;5.53;;
17201;SDS011;8717;53.588;10.176;2023-11-19T14:04:50;26.50;;;6.07;;
17201;SDS011;8717;53.588;10.176;2023-11-19T14:07:16;23.07;;;5.87;;
17201;SDS011;8717;53.588;10.176;2023-11-19T14:09:43;25.70;;;5.83;;
17201;SDS011;8717;53.588;10.176;2023-11-19T14:12:10;26.43;;;6.27;;
17201;SDS011;8717;53.588;10.176;2023-11-19T14:14:39;26.30;;;6.47;;
17201;SDS011;8717;53.588;10.176;2023-11-19T14:17:07;21.13;;;6.00;;
17201;SDS011;8717;53.588;10.176;2023-11-19T14:19:34;29.17;;;6.37;;
17201;SDS011;8717;53.588;10.176;2023-11-19T14:22:00;30.20;;;6.03;;
17201;SDS011;8717;53.588;10.176;2023-11-19T14:24:27;26.03;;;6.50;;
17201;SDS011;8717;53.588;10.176;2023-11-19T14:26:54;26.53;;;5.97;;
17201;SDS011;8717;53.588;10.176;2023-11-19T14:29:23;25.70;;;5.93;;
17201;SDS011;8717;53.588;10.176;2023-11-19T14:31:52;25.07;;;6.10;;
17201;SDS011;8717;53.588;10.176;2023-11-19T14:34:19;22.70;;;5.73;;
17201;SDS011;8717;53.588;10.176;2023-11-19T14:36:46;21.20;;;5.00;;
17201;SDS011;8717;53.588;10.176;2023-11-19T14:39:14;22.27;;;5.43;;
17201;SDS011;8717;53.588;10.176;2023-11-19T14:41:42;23.20;;;6.10;;
17201;SDS011;8717;53.588;10.176;2023-11-19T14:44:08;28.23;;;5.63;;
17201;SDS011;8717;53.588;10.176;2023-11-19T14:46:35;23.97;;;4.93;;
17201;SDS011;8717;53.588;10.176;2023-11-19T14:49:04;21.87;;;5.27;;
17201;SDS011;8717;53.588;10.176;2023-11-19T14:51:30;26.40;;;5.13;;
17201;SDS011;8717;53.588;10.176;2023-11-19T14:53:57;20.97;;;6.30;;